sensor_id;sensor_type;location;lat;lon;timestamp;temperature;humidity
1992;DHT22;997;48.448;8.924;2023-02-25T04:01:26;5.30;99.90
1992;DHT22;997;48.448;8.924;2023-02-25T04:03:53;5.40;99.90
1992;DHT22;997;48.448;8.924;2023-02-25T04:06:23;5.40;99.90
1992;DHT22;997;48.448;8.924;2023-02-25T04:08:50;5.40;99.90
1992;DHT22;997;48.448;8.924;2023-02-25T04:11:16;5.40;99.90
1992;DHT22;997;48.448;8.924;2023-02-25T04:14:03;5.50;99.90
1992;DHT22;997;48.448;8.924;2023-02-25T04:16:29;5.40;99.90
1992;DHT22;997;48.448;8.924;2023-02-25T04:18:55;5.40;99.90
1992;DHT22;997;48.448;8.924;2023-02-25T04:21:39;5.30;99.90
1992;DHT22;997;48.448;8.924;2023-02-25T04:24:05;5.20;99.90
1992;DHT22;997;48.448;8.924;2023-02-25T04:26:32;5.30;99.90
1992;DHT22;997;48.448;8.924;2023-02-25T04:28:58;5.40;99.90
1992;DHT22;997;48.448;8.924;2023-02-25T04:31:24;5.50;99.90
1992;DHT22;997;48.448;8.924;2023-02-25T04:33:50;5.60;99.90
1992;DHT22;997;48.448;8.924;2023-02-25T04:36:30;5.70;99.90
1992;DHT22;997;48.448;8.924;2023-02-25T04:38:58;5.60;99.90
1992;DHT22;997;48.448;8.924;2023-02-25T04:41:28;5.50;99.90
1992;DHT22;997;48.448;8.924;2023-02-25T04:43:54;5.30;99.90
1992;DHT22;997;48.448;8.924;2023-02-25T04:46:20;5.20;99.90
1992;DHT22;997;48.448;8.924;2023-02-25T04:48:46;5.20;99.90
1992;DHT22;997;48.448;8.924;2023-02-25T04:51:11;5.10;99.90
1992;DHT22;997;48.448;8.924;2023-02-25T04:53:37;5.10;99.90
1992;DHT22;997;48.448;8.924;2023-02-25T04:56:05;5.10;99.90
1992;DHT22;997;48.448;8.924;2023-02-25T04:58:32;5.20;99.90
1992;DHT22;997;48.448;8.924;2023-02-25T05:01:03;5.30;99.90
1992;DHT22;997;48.448;8.924;2023-02-25T05:03:30;5.40;99.90
1992;DHT22;997;48.448;8.924;2023-02-25T05:05:56;5.60;99.90
1992;DHT22;997;48.448;8.924;2023-02-25T05:08:22;5.80;99.90
1992;DHT22;997;48.448;8.924;2023-02-25T05:10:48;5.90;99.90
1992;DHT22;997;48.448;8.924;2023-02-25T05:13:14;5.90;99.90
1992;DHT22;997;48.448;8.924;2023-02-25T05:15:40;5.90;99.90
1992;DHT22;997;48.448;8.924;2023-02-25T05:18:06;6.00;99.90
1992;DHT22;997;48.448;8.924;2023-02-25T05:20:32;6.00;99.90
1992;DHT22;997;48.448;8.924;2023-02-25T05:22:58;5.80;99.90
1992;DHT22;997;48.448;8.924;2023-02-25T05:25:23;5.50;99.90
1992;DHT22;997;48.448;8.924;2023-02-25T05:27:50;5.40;99.90
1992;DHT22;997;48.448;8.924;2023-02-25T05:30:15;5.40;99.90
1992;DHT22;997;48.448;8.924;2023-02-25T05:32:41;5.40;99.90
1992;DHT22;997;48.448;8.924;2023-02-25T05:35:08;5.40;99.90
1992;DHT22;997;48.448;8.924;2023-02-25T05:37:34;5.30;99.90
1992;DHT22;997;48.448;8.924;2023-02-25T05:40:00;5.40;99.90
1992;DHT22;997;48.448;8.924;2023-02-25T05:42:27;5.30;99.90
1992;DHT22;997;48.448;8.924;2023-02-25T05:44:53;5.30;99.90
1992;DHT22;997;48.448;8.924;2023-02-25T05:47:18;5.30;99.90
1992;DHT22;997;48.448;8.924;2023-02-25T05:49:44;5.20;99.90
1992;DHT22;997;48.448;8.924;2023-02-25T05:52:12;5.40;99.90
1992;DHT22;997;48.448;8.924;2023-02-25T05:54:37;5.20;99.90
1992;DHT22;997;48.448;8.924;2023-02-25T05:57:04;5.10;99.90
1992;DHT22;997;48.448;8.924;2023-02-25T05:59:30;5.10;99.90
1992;DHT22;997;48.448;8.924;2023-02-25T06:01:55;5.00;99.90
1992;DHT22;997;48.448;8.924;2023-02-25T06:04:21;5.00;99.90
1992;DHT22;997;48.448;8.924;2023-02-25T06:06:46;5.20;99.90
1992;DHT22;997;48.448;8.924;2023-02-25T06:09:17;5.30;99.90
1992;DHT22;997;48.448;8.924;2023-02-25T06:11:43;5.30;99.90
1992;DHT22;997;48.448;8.924;2023-02-25T06:14:10;5.40;99.90
1992;DHT22;997;48.448;8.924;2023-02-25T06:16:37;5.40;99.90
1992;DHT22;997;48.448;8.924;2023-02-25T06:19:03;5.20;99.90
1992;DHT22;997;48.448;8.924;2023-02-25T06:21:31;4.90;99.90
1992;DHT22;997;48.448;8.924;2023-02-25T06:23:59;4.80;99.90
1992;DHT22;997;48.448;8.924;2023-02-25T06:26:25;4.80;99.90
1992;DHT22;997;48.448;8.924;2023-02-25T06:28:51;4.80;99.90
1992;DHT22;997;48.448;8.924;2023-02-25T06:31:21;4.80;99.90
1992;DHT22;997;48.448;8.924;2023-02-25T06:33:48;4.80;99.90
1992;DHT22;997;48.448;8.924;2023-02-25T06:36:16;4.70;99.90
1992;DHT22;997;48.448;8.924;2023-02-25T06:38:42;4.70;99.90
1992;DHT22;997;48.448;8.924;2023-02-25T06:41:14;4.60;99.90
1992;DHT22;997;48.448;8.924;2023-02-25T06:43:41;4.50;99.90
1992;DHT22;997;48.448;8.924;2023-02-25T06:46:08;4.50;99.90
1992;DHT22;997;48.448;8.924;2023-02-25T06:48:34;4.50;99.90
1992;DHT22;997;48.448;8.924;2023-02-25T06:51:01;4.60;99.90
1992;DHT22;997;48.448;8.924;2023-02-25T06:53:28;4.70;99.90
1992;DHT22;997;48.448;8.924;2023-02-25T06:55:54;4.70;99.90
1992;DHT22;997;48.448;8.924;2023-02-25T06:58:19;4.70;99.90
1992;DHT22;997;48.448;8.924;2023-02-25T07:00:45;4.80;99.90
1992;DHT22;997;48.448;8.924;2023-02-25T07:03:12;4.80;99.90
1992;DHT22;997;48.448;8.924;2023-02-25T07:05:38;4.90;99.90
1992;DHT22;997;48.448;8.924;2023-02-25T07:08:04;4.90;99.90
1992;DHT22;997;48.448;8.924;2023-02-25T07:10:30;5.00;99.90
1992;DHT22;997;48.448;8.924;2023-02-25T07:12:55;4.90;99.90
1992;DHT22;997;48.448;8.924;2023-02-25T07:15:21;5.00;99.90
1992;DHT22;997;48.448;8.924;2023-02-25T07:17:47;5.00;99.90
1992;DHT22;997;48.448;8.924;2023-02-25T07:20:19;4.90;99.90
1992;DHT22;997;48.448;8.924;2023-02-25T07:22:47;4.90;99.90
1992;DHT22;997;48.448;8.924;2023-02-25T07:25:15;4.60;99.90
1992;DHT22;997;48.448;8.924;2023-02-25T07:27:44;4.50;99.90
1992;DHT22;997;48.448;8.924;2023-02-25T07:30:15;4.40;99.90
1992;DHT22;997;48.448;8.924;2023-02-25T07:32:43;4.40;99.90
1992;DHT22;997;48.448;8.924;2023-02-25T07:35:12;4.20;99.90
1992;DHT22;997;48.448;8.924;2023-02-25T07:37:38;4.00;99.90
1992;DHT22;997;48.448;8.924;2023-02-25T07:40:11;3.90;99.90
1992;DHT22;997;48.448;8.924;2023-02-25T07:42:41;4.00;99.90
1992;DHT22;997;48.448;8.924;2023-02-25T07:45:08;4.10;99.90
1992;DHT22;997;48.448;8.924;2023-02-25T07:47:34;4.10;99.90
1992;DHT22;997;48.448;8.924;2023-02-25T07:50:01;4.20;99.90
1992;DHT22;997;48.448;8.924;2023-02-25T07:52:27;4.30;99.90
1992;DHT22;997;48.448;8.924;2023-02-25T07:54:53;4.50;99.90
1992;DHT22;997;48.448;8.924;2023-02-25T07:57:19;4.50;99.90
1992;DHT22;997;48.448;8.924;2023-02-25T07:59:44;4.30;99.90
1992;DHT22;997;48.448;8.924;2023-02-25T08:02:11;4.20;99.90
1992;DHT22;997;48.448;8.924;2023-02-25T08:04:36;4.40;99.90
1992;DHT22;997;48.448;8.924;2023-02-25T08:07:02;4.50;99.90
1992;DHT22;997;48.448;8.924;2023-02-25T08:09:28;4.50;99.90
1992;DHT22;997;48.448;8.924;2023-02-25T08:11:54;4.50;99.90
1992;DHT22;997;48.448;8.924;2023-02-25T08:14:19;4.50;99.90
1992;DHT22;997;48.448;8.924;2023-02-25T08:16:48;4.50;99.90
1992;DHT22;997;48.448;8.924;2023-02-25T08:19:14;4.50;99.90
1992;DHT22;997;48.448;8.924;2023-02-25T08:21:47;4.50;99.90
1992;DHT22;997;48.448;8.924;2023-02-25T08:24:13;4.50;99.90
1992;DHT22;997;48.448;8.924;2023-02-25T08:26:39;4.60;99.90
1992;DHT22;997;48.448;8.924;2023-02-25T08:29:05;4.80;99.90
1992;DHT22;997;48.448;8.924;2023-02-25T08:31:32;4.90;99.90
1992;DHT22;997;48.448;8.924;2023-02-25T08:33:58;4.90;99.90
1992;DHT22;997;48.448;8.924;2023-02-25T08:36:28;4.70;99.90
1992;DHT22;997;48.448;8.924;2023-02-25T08:38:55;4.70;99.90
1992;DHT22;997;48.448;8.924;2023-02-25T08:41:24;4.70;99.90
1992;DHT22;997;48.448;8.924;2023-02-25T08:43:52;4.60;99.90
1992;DHT22;997;48.448;8.924;2023-02-25T08:46:20;4.50;99.90
1992;DHT22;997;48.448;8.924;2023-02-25T08:48:48;4.60;99.90
1992;DHT22;997;48.448;8.924;2023-02-25T08:51:14;4.70;99.90
1992;DHT22;997;48.448;8.924;2023-02-25T08:53:40;4.90;99.90
1992;DHT22;997;48.448;8.924;2023-02-25T08:56:07;5.00;99.90
1992;DHT22;997;48.448;8.924;2023-02-25T08:58:34;4.90;99.90
1992;DHT22;997;48.448;8.924;2023-02-25T09:01:00;4.70;99.90
1992;DHT22;997;48.448;8.924;2023-02-25T09:03:26;4.60;99.90
1992;DHT22;997;48.448;8.924;2023-02-25T09:05:53;4.60;99.90
1992;DHT22;997;48.448;8.924;2023-02-25T09:08:19;4.70;99.90
1992;DHT22;997;48.448;8.924;2023-02-25T09:10:45;4.50;99.90
1992;DHT22;997;48.448;8.924;2023-02-25T09:13:10;4.50;99.90
1992;DHT22;997;48.448;8.924;2023-02-25T09:15:36;4.30;99.90
1992;DHT22;997;48.448;8.924;2023-02-25T09:18:02;4.50;99.90
1992;DHT22;997;48.448;8.924;2023-02-25T09:20:28;4.70;99.90
1992;DHT22;997;48.448;8.924;2023-02-25T09:22:53;4.80;99.90
1992;DHT22;997;48.448;8.924;2023-02-25T09:25:20;4.60;99.90
1992;DHT22;997;48.448;8.924;2023-02-25T09:27:45;4.20;99.90
1992;DHT22;997;48.448;8.924;2023-02-25T09:30:11;3.90;99.90
1992;DHT22;997;48.448;8.924;2023-02-25T09:32:37;3.80;99.90
1992;DHT22;997;48.448;8.924;2023-02-25T09:35:03;3.80;99.90
1992;DHT22;997;48.448;8.924;2023-02-25T09:37:32;3.80;99.90
1992;DHT22;997;48.448;8.924;2023-02-25T09:39:57;3.80;99.90
1992;DHT22;997;48.448;8.924;2023-02-25T09:42:27;4.00;99.90
1992;DHT22;997;48.448;8.924;2023-02-25T09:44:59;4.20;99.90
1992;DHT22;997;48.448;8.924;2023-02-25T09:49:55;4.40;99.90
1992;DHT22;997;48.448;8.924;2023-02-25T09:52:26;4.30;99.90
1992;DHT22;997;48.448;8.924;2023-02-25T09:57:21;4.50;99.90
1992;DHT22;997;48.448;8.924;2023-02-25T09:59:50;4.50;99.90
1992;DHT22;997;48.448;8.924;2023-02-25T10:02:26;4.70;99.90
1992;DHT22;997;48.448;8.924;2023-02-25T10:21:48;5.30;99.90
1992;DHT22;997;48.448;8.924;2023-02-25T10:24:45;5.30;99.90
1992;DHT22;997;48.448;8.924;2023-02-25T10:32:56;5.40;99.90
1992;DHT22;997;48.448;8.924;2023-02-25T10:35:28;5.50;99.90
1992;DHT22;997;48.448;8.924;2023-02-25T10:37:54;5.80;99.90
1992;DHT22;997;48.448;8.924;2023-02-25T10:40:54;6.00;99.90
1992;DHT22;997;48.448;8.924;2023-02-25T10:44:08;6.10;99.90
1992;DHT22;997;48.448;8.924;2023-02-25T10:50:25;6.20;99.90
1992;DHT22;997;48.448;8.924;2023-02-25T10:53:10;5.90;99.90
1992;DHT22;997;48.448;8.924;2023-02-25T10:55:55;5.60;99.90
1992;DHT22;997;48.448;8.924;2023-02-25T10:58:43;5.50;99.90
1992;DHT22;997;48.448;8.924;2023-02-25T11:01:12;5.30;99.90
1992;DHT22;997;48.448;8.924;2023-02-25T11:04:08;5.10;99.90
1992;DHT22;997;48.448;8.924;2023-02-25T11:10:46;4.60;99.90
1992;DHT22;997;48.448;8.924;2023-02-25T11:13:40;4.90;99.90
1992;DHT22;997;48.448;8.924;2023-02-25T11:16:13;5.00;99.90
1992;DHT22;997;48.448;8.924;2023-02-25T11:18:56;5.00;99.90
1992;DHT22;997;48.448;8.924;2023-02-25T11:21:37;5.20;99.90
1992;DHT22;997;48.448;8.924;2023-02-25T11:26:52;5.10;99.90
1992;DHT22;997;48.448;8.924;2023-02-25T11:29:29;5.00;99.90
1992;DHT22;997;48.448;8.924;2023-02-25T11:32:00;5.00;99.90
1992;DHT22;997;48.448;8.924;2023-02-25T11:34:46;5.10;99.90
1992;DHT22;997;48.448;8.924;2023-02-25T11:37:38;5.00;99.90
1992;DHT22;997;48.448;8.924;2023-02-25T11:40:26;5.00;99.90
1992;DHT22;997;48.448;8.924;2023-02-25T11:43:51;5.00;99.90
1992;DHT22;997;48.448;8.924;2023-02-25T11:46:20;4.90;99.90
1992;DHT22;997;48.448;8.924;2023-02-25T11:49:01;4.70;99.90
1992;DHT22;997;48.448;8.924;2023-02-25T11:51:50;4.60;99.90
1992;DHT22;997;48.448;8.924;2023-02-25T12:00:34;5.30;99.90
1992;DHT22;997;48.448;8.924;2023-02-25T12:14:17;5.70;99.90
1992;DHT22;997;48.448;8.924;2023-02-25T12:30:32;5.70;99.90
1992;DHT22;997;48.448;8.924;2023-02-25T12:36:22;5.40;99.90
1992;DHT22;997;48.448;8.924;2023-02-25T12:50:22;5.20;99.90
1992;DHT22;997;48.448;8.924;2023-02-25T12:56:09;5.00;99.90
1992;DHT22;997;48.448;8.924;2023-02-25T13:12:09;5.30;99.90
1992;DHT22;997;48.448;8.924;2023-02-25T13:15:15;5.40;99.90
1992;DHT22;997;48.448;8.924;2023-02-25T13:23:14;5.50;99.90
1992;DHT22;997;48.448;8.924;2023-02-25T13:25:49;5.40;99.90
1992;DHT22;997;48.448;8.924;2023-02-25T13:28:42;5.50;99.90
1992;DHT22;997;48.448;8.924;2023-02-25T13:42:57;5.60;99.90
1992;DHT22;997;48.448;8.924;2023-02-25T14:21:57;5.10;99.90
1992;DHT22;997;48.448;8.924;2023-02-25T14:24:45;4.90;99.90
1992;DHT22;997;48.448;8.924;2023-02-25T14:32:51;5.30;99.90
1992;DHT22;997;48.448;8.924;2023-02-25T14:38:14;5.20;99.90
1992;DHT22;997;48.448;8.924;2023-02-25T14:43:33;4.90;99.90
1992;DHT22;997;48.448;8.924;2023-02-25T14:46:25;5.00;99.90
1992;DHT22;997;48.448;8.924;2023-02-25T14:49:16;5.00;99.90
1992;DHT22;997;48.448;8.924;2023-02-25T14:51:54;5.10;99.90
1992;DHT22;997;48.448;8.924;2023-02-25T15:00:23;4.90;99.90
1992;DHT22;997;48.448;8.924;2023-02-25T15:02:56;4.90;99.90
1992;DHT22;997;48.448;8.924;2023-02-25T15:22:29;5.20;99.90
1992;DHT22;997;48.448;8.924;2023-02-25T15:27:49;5.00;99.90
1992;DHT22;997;48.448;8.924;2023-02-25T15:30:16;5.00;99.90
1992;DHT22;997;48.448;8.924;2023-02-25T15:38:04;4.90;99.90
1992;DHT22;997;48.448;8.924;2023-02-25T15:43:25;5.10;99.90
1992;DHT22;997;48.448;8.924;2023-02-25T16:00:58;4.90;99.90
1992;DHT22;997;48.448;8.924;2023-02-25T16:09:00;4.90;99.90
1992;DHT22;997;48.448;8.924;2023-02-25T16:11:50;5.00;99.90
1992;DHT22;997;48.448;8.924;2023-02-25T16:14:30;5.30;99.90
1992;DHT22;997;48.448;8.924;2023-02-25T16:19:45;5.30;99.90
1992;DHT22;997;48.448;8.924;2023-02-25T16:22:26;5.10;99.90
1992;DHT22;997;48.448;8.924;2023-02-25T16:24:55;5.00;99.90
1992;DHT22;997;48.448;8.924;2023-02-25T16:30:39;5.10;99.90
1992;DHT22;997;48.448;8.924;2023-02-25T16:33:44;5.00;99.90
1992;DHT22;997;48.448;8.924;2023-02-25T16:40:24;5.40;99.90
1992;DHT22;997;48.448;8.924;2023-02-25T16:43:03;5.60;99.90
1992;DHT22;997;48.448;8.924;2023-02-25T16:51:07;5.80;99.90
1992;DHT22;997;48.448;8.924;2023-02-25T16:53:33;5.80;99.90
1992;DHT22;997;48.448;8.924;2023-02-25T16:56:00;5.70;99.90
1992;DHT22;997;48.448;8.924;2023-02-25T16:58:27;5.60;99.90
1992;DHT22;997;48.448;8.924;2023-02-25T17:00:56;5.50;99.90
1992;DHT22;997;48.448;8.924;2023-02-25T17:03:25;5.40;99.90
1992;DHT22;997;48.448;8.924;2023-02-25T17:06:18;5.40;99.90
1992;DHT22;997;48.448;8.924;2023-02-25T17:08:49;5.60;99.90
1992;DHT22;997;48.448;8.924;2023-02-25T17:11:20;5.50;99.90
1992;DHT22;997;48.448;8.924;2023-02-25T17:13:47;5.30;99.90
1992;DHT22;997;48.448;8.924;2023-02-25T17:16:34;5.30;99.90
1992;DHT22;997;48.448;8.924;2023-02-25T17:19:04;5.20;99.90
1992;DHT22;997;48.448;8.924;2023-02-25T17:21:37;5.00;99.90
1992;DHT22;997;48.448;8.924;2023-02-25T17:24:06;4.90;99.90
1992;DHT22;997;48.448;8.924;2023-02-25T17:26:34;4.90;99.90
1992;DHT22;997;48.448;8.924;2023-02-25T17:29:09;5.00;99.90
1992;DHT22;997;48.448;8.924;2023-02-25T17:31:45;5.10;99.90
1992;DHT22;997;48.448;8.924;2023-02-25T17:34:29;5.20;99.90
1992;DHT22;997;48.448;8.924;2023-02-25T17:36:58;5.40;99.90
1992;DHT22;997;48.448;8.924;2023-02-25T17:39:25;5.50;99.90
1992;DHT22;997;48.448;8.924;2023-02-25T17:41:53;5.70;99.90
1992;DHT22;997;48.448;8.924;2023-02-25T17:47:08;5.80;99.90
1992;DHT22;997;48.448;8.924;2023-02-25T17:49:35;5.60;99.90
1992;DHT22;997;48.448;8.924;2023-02-25T17:52:07;5.70;99.90
1992;DHT22;997;48.448;8.924;2023-02-25T17:54:46;5.70;99.90
1992;DHT22;997;48.448;8.924;2023-02-25T17:57:20;5.60;99.90
1992;DHT22;997;48.448;8.924;2023-02-25T18:00:23;5.60;99.90
1992;DHT22;997;48.448;8.924;2023-02-25T18:03:19;5.60;99.90
1992;DHT22;997;48.448;8.924;2023-02-25T18:05:56;5.70;99.90
1992;DHT22;997;48.448;8.924;2023-02-25T18:08:50;5.70;99.90
1992;DHT22;997;48.448;8.924;2023-02-25T18:11:38;5.70;99.90
1992;DHT22;997;48.448;8.924;2023-02-25T18:14:40;5.60;99.90
1992;DHT22;997;48.448;8.924;2023-02-25T18:17:39;5.50;99.90
1992;DHT22;997;48.448;8.924;2023-02-25T18:20:33;5.60;99.90
1992;DHT22;997;48.448;8.924;2023-02-25T18:23:25;5.70;99.90
1992;DHT22;997;48.448;8.924;2023-02-25T18:26:15;5.50;99.90
1992;DHT22;997;48.448;8.924;2023-02-25T18:28:43;5.30;99.90
1992;DHT22;997;48.448;8.924;2023-02-25T18:31:28;4.60;99.90
1992;DHT22;997;48.448;8.924;2023-02-25T18:33:59;4.30;99.90
1992;DHT22;997;48.448;8.924;2023-02-25T18:36:33;4.00;99.90
1992;DHT22;997;48.448;8.924;2023-02-25T18:39:11;3.90;99.90
1992;DHT22;997;48.448;8.924;2023-02-25T18:41:39;3.70;99.90
1992;DHT22;997;48.448;8.924;2023-02-25T18:44:12;3.70;99.90
1992;DHT22;997;48.448;8.924;2023-02-25T18:46:43;3.70;99.90
1992;DHT22;997;48.448;8.924;2023-02-25T18:49:14;3.70;99.90
1992;DHT22;997;48.448;8.924;2023-02-25T18:51:48;3.80;99.90
1992;DHT22;997;48.448;8.924;2023-02-25T18:54:15;3.80;99.90
1992;DHT22;997;48.448;8.924;2023-02-25T18:56:46;3.90;99.90
1992;DHT22;997;48.448;8.924;2023-02-25T18:59:30;3.80;99.90
1992;DHT22;997;48.448;8.924;2023-02-25T19:02:34;3.60;99.90
1992;DHT22;997;48.448;8.924;2023-02-25T19:05:02;3.20;99.90
1992;DHT22;997;48.448;8.924;2023-02-25T19:07:32;2.90;99.90
1992;DHT22;997;48.448;8.924;2023-02-25T19:09:58;2.70;99.90
1992;DHT22;997;48.448;8.924;2023-02-25T19:12:26;2.70;99.90
1992;DHT22;997;48.448;8.924;2023-02-25T19:14:58;2.60;99.90
1992;DHT22;997;48.448;8.924;2023-02-25T19:17:26;2.60;99.90
1992;DHT22;997;48.448;8.924;2023-02-25T19:19:52;2.60;99.90
1992;DHT22;997;48.448;8.924;2023-02-25T19:22:18;2.50;99.90
1992;DHT22;997;48.448;8.924;2023-02-25T19:24:45;2.40;99.90
1992;DHT22;997;48.448;8.924;2023-02-25T19:27:24;2.30;99.90
1992;DHT22;997;48.448;8.924;2023-02-25T19:29:52;2.20;99.90
1992;DHT22;997;48.448;8.924;2023-02-25T19:32:19;2.10;99.90
1992;DHT22;997;48.448;8.924;2023-02-25T19:34:46;2.00;99.90
1992;DHT22;997;48.448;8.924;2023-02-25T19:37:13;2.10;99.90
1992;DHT22;997;48.448;8.924;2023-02-25T19:39:39;2.10;99.90
1992;DHT22;997;48.448;8.924;2023-02-25T19:42:06;2.10;99.90
1992;DHT22;997;48.448;8.924;2023-02-25T19:44:33;2.10;99.90
1992;DHT22;997;48.448;8.924;2023-02-25T19:46:59;2.00;99.90
1992;DHT22;997;48.448;8.924;2023-02-25T19:49:25;2.00;99.90
1992;DHT22;997;48.448;8.924;2023-02-25T19:51:51;1.90;99.90
1992;DHT22;997;48.448;8.924;2023-02-25T19:54:21;1.90;99.90
1992;DHT22;997;48.448;8.924;2023-02-25T19:56:47;1.90;99.90
1992;DHT22;997;48.448;8.924;2023-02-25T19:59:14;1.90;99.90
1992;DHT22;997;48.448;8.924;2023-02-25T20:01:40;1.90;99.90
1992;DHT22;997;48.448;8.924;2023-02-25T20:04:07;1.80;99.90
1992;DHT22;997;48.448;8.924;2023-02-25T20:06:35;1.90;99.90
1992;DHT22;997;48.448;8.924;2023-02-25T20:09:05;1.80;99.90
1992;DHT22;997;48.448;8.924;2023-02-25T20:11:31;1.80;99.90
1992;DHT22;997;48.448;8.924;2023-02-25T20:13:59;1.80;99.90
1992;DHT22;997;48.448;8.924;2023-02-25T20:16:25;1.90;99.90
1992;DHT22;997;48.448;8.924;2023-02-25T20:18:59;1.90;99.90
1992;DHT22;997;48.448;8.924;2023-02-25T20:21:34;1.90;99.90
1992;DHT22;997;48.448;8.924;2023-02-25T20:24:17;2.10;99.90
1992;DHT22;997;48.448;8.924;2023-02-25T20:26:46;2.10;99.90
1992;DHT22;997;48.448;8.924;2023-02-25T20:29:15;2.30;99.90
1992;DHT22;997;48.448;8.924;2023-02-25T20:31:44;2.20;99.90
1992;DHT22;997;48.448;8.924;2023-02-25T20:34:16;2.30;99.90
1992;DHT22;997;48.448;8.924;2023-02-25T20:37:05;2.30;99.90
1992;DHT22;997;48.448;8.924;2023-02-25T20:42:12;2.10;99.90
1992;DHT22;997;48.448;8.924;2023-02-25T20:44:38;2.10;99.90
1992;DHT22;997;48.448;8.924;2023-02-25T20:47:04;2.10;99.90
1992;DHT22;997;48.448;8.924;2023-02-25T20:49:30;2.10;99.90
1992;DHT22;997;48.448;8.924;2023-02-25T20:51:57;2.00;99.90
1992;DHT22;997;48.448;8.924;2023-02-25T20:54:23;2.00;99.90
1992;DHT22;997;48.448;8.924;2023-02-25T20:56:49;2.10;99.90
1992;DHT22;997;48.448;8.924;2023-02-25T20:59:21;2.20;99.90
1992;DHT22;997;48.448;8.924;2023-02-25T21:01:54;2.30;99.90
1992;DHT22;997;48.448;8.924;2023-02-25T21:04:20;2.30;99.90
1992;DHT22;997;48.448;8.924;2023-02-25T21:06:46;2.30;99.90
1992;DHT22;997;48.448;8.924;2023-02-25T21:09:12;2.30;99.90
1992;DHT22;997;48.448;8.924;2023-02-25T21:11:41;2.50;99.90
1992;DHT22;997;48.448;8.924;2023-02-25T21:14:11;2.30;99.90
1992;DHT22;997;48.448;8.924;2023-02-25T21:16:38;2.40;99.90
1992;DHT22;997;48.448;8.924;2023-02-25T21:19:04;2.30;99.90
1992;DHT22;997;48.448;8.924;2023-02-25T21:21:45;2.20;99.90
1992;DHT22;997;48.448;8.924;2023-02-25T21:24:11;2.20;99.90
1992;DHT22;997;48.448;8.924;2023-02-25T21:26:48;1.90;99.90
1992;DHT22;997;48.448;8.924;2023-02-25T21:29:14;1.80;99.90
1992;DHT22;997;48.448;8.924;2023-02-25T21:31:40;1.80;99.90
1992;DHT22;997;48.448;8.924;2023-02-25T21:34:06;1.60;99.90
1992;DHT22;997;48.448;8.924;2023-02-25T21:36:33;1.40;99.90
1992;DHT22;997;48.448;8.924;2023-02-25T21:39:02;1.40;99.90
1992;DHT22;997;48.448;8.924;2023-02-25T21:41:31;1.40;99.90
1992;DHT22;997;48.448;8.924;2023-02-25T21:43:57;1.40;99.90
1992;DHT22;997;48.448;8.924;2023-02-25T21:46:23;1.40;99.90
1992;DHT22;997;48.448;8.924;2023-02-25T21:48:48;1.50;99.90
1992;DHT22;997;48.448;8.924;2023-02-25T21:51:19;1.40;99.90
1992;DHT22;997;48.448;8.924;2023-02-25T21:53:45;1.40;99.90
1992;DHT22;997;48.448;8.924;2023-02-25T21:56:29;1.30;99.90
1992;DHT22;997;48.448;8.924;2023-02-25T21:58:57;1.30;99.90
1992;DHT22;997;48.448;8.924;2023-02-25T22:01:35;1.40;99.90
1992;DHT22;997;48.448;8.924;2023-02-25T22:04:01;1.40;99.90
1992;DHT22;997;48.448;8.924;2023-02-25T22:06:28;1.40;99.90
1992;DHT22;997;48.448;8.924;2023-02-25T22:08:54;1.40;99.90
1992;DHT22;997;48.448;8.924;2023-02-25T22:11:24;1.30;99.90
1992;DHT22;997;48.448;8.924;2023-02-25T22:13:50;1.30;99.90
1992;DHT22;997;48.448;8.924;2023-02-25T22:16:17;1.30;99.90
1992;DHT22;997;48.448;8.924;2023-02-25T22:18:42;1.30;99.90
1992;DHT22;997;48.448;8.924;2023-02-25T22:21:17;1.30;99.90
1992;DHT22;997;48.448;8.924;2023-02-25T22:23:44;1.40;99.90
1992;DHT22;997;48.448;8.924;2023-02-25T22:26:21;1.40;99.90
1992;DHT22;997;48.448;8.924;2023-02-25T22:28:47;1.50;99.90
